sensor_id;sensor_type;location;lat;lon;timestamp;temperature;humidity
74359;DHT22;62792;46.236;6.040;2024-03-06T00:03:23;21.90;40.50
74359;DHT22;62792;46.236;6.040;2024-03-06T00:08:26;22.00;40.50
74359;DHT22;62792;46.236;6.040;2024-03-06T00:13:31;21.90;40.70
74359;DHT22;62792;46.236;6.040;2024-03-06T00:18:34;21.90;40.50
74359;DHT22;62792;46.236;6.040;2024-03-06T00:23:37;21.90;40.40
74359;DHT22;62792;46.236;6.040;2024-03-06T00:28:41;21.80;40.70
74359;DHT22;62792;46.236;6.040;2024-03-06T00:33:45;21.80;40.70
74359;DHT22;62792;46.236;6.040;2024-03-06T00:38:47;21.90;40.60
74359;DHT22;62792;46.236;6.040;2024-03-06T00:43:52;21.80;40.80
74359;DHT22;62792;46.236;6.040;2024-03-06T00:48:55;21.80;40.70
74359;DHT22;62792;46.236;6.040;2024-03-06T00:53:58;21.90;40.70
74359;DHT22;62792;46.236;6.040;2024-03-06T00:59:03;21.80;40.60
74359;DHT22;62792;46.236;6.040;2024-03-06T01:04:06;21.80;40.60
74359;DHT22;62792;46.236;6.040;2024-03-06T01:09:09;21.80;40.50
74359;DHT22;62792;46.236;6.040;2024-03-06T01:14:13;21.80;40.70
74359;DHT22;62792;46.236;6.040;2024-03-06T01:19:16;21.90;40.60
74359;DHT22;62792;46.236;6.040;2024-03-06T01:24:19;21.80;40.70
74359;DHT22;62792;46.236;6.040;2024-03-06T01:29:23;21.90;40.60
74359;DHT22;62792;46.236;6.040;2024-03-06T01:34:26;21.90;40.60
74359;DHT22;62792;46.236;6.040;2024-03-06T01:39:29;21.90;40.50
74359;DHT22;62792;46.236;6.040;2024-03-06T01:44:33;21.80;40.70
74359;DHT22;62792;46.236;6.040;2024-03-06T01:49:36;21.80;40.60
74359;DHT22;62792;46.236;6.040;2024-03-06T01:54:45;21.80;40.70
74359;DHT22;62792;46.236;6.040;2024-03-06T01:59:51;21.90;40.80
74359;DHT22;62792;46.236;6.040;2024-03-06T02:04:55;21.70;40.70
74359;DHT22;62792;46.236;6.040;2024-03-06T02:09:59;21.80;40.60
74359;DHT22;62792;46.236;6.040;2024-03-06T02:15:03;21.90;40.70
74359;DHT22;62792;46.236;6.040;2024-03-06T02:20:07;21.80;40.80
74359;DHT22;62792;46.236;6.040;2024-03-06T02:25:15;21.80;40.60
74359;DHT22;62792;46.236;6.040;2024-03-06T02:30:20;21.80;40.90
74359;DHT22;62792;46.236;6.040;2024-03-06T02:35:23;21.80;40.80
74359;DHT22;62792;46.236;6.040;2024-03-06T02:40:28;21.80;40.90
74359;DHT22;62792;46.236;6.040;2024-03-06T02:45:31;21.70;40.70
74359;DHT22;62792;46.236;6.040;2024-03-06T02:50:34;21.90;40.70
74359;DHT22;62792;46.236;6.040;2024-03-06T02:55:38;21.80;40.60
74359;DHT22;62792;46.236;6.040;2024-03-06T03:00:41;21.90;40.70
74359;DHT22;62792;46.236;6.040;2024-03-06T03:05:44;21.80;40.90
74359;DHT22;62792;46.236;6.040;2024-03-06T03:10:48;21.70;40.70
74359;DHT22;62792;46.236;6.040;2024-03-06T03:15:52;21.70;40.80
74359;DHT22;62792;46.236;6.040;2024-03-06T03:20:55;21.80;40.90
74359;DHT22;62792;46.236;6.040;2024-03-06T03:25:59;21.80;40.70
74359;DHT22;62792;46.236;6.040;2024-03-06T03:31:03;21.70;40.60
74359;DHT22;62792;46.236;6.040;2024-03-06T03:36:06;21.80;40.60
74359;DHT22;62792;46.236;6.040;2024-03-06T03:41:11;21.80;40.70
74359;DHT22;62792;46.236;6.040;2024-03-06T03:46:15;21.80;40.60
74359;DHT22;62792;46.236;6.040;2024-03-06T03:51:18;21.80;40.40
74359;DHT22;62792;46.236;6.040;2024-03-06T03:56:22;21.80;40.90
74359;DHT22;62792;46.236;6.040;2024-03-06T04:01:25;21.70;40.80
74359;DHT22;62792;46.236;6.040;2024-03-06T04:06:28;21.70;40.60
74359;DHT22;62792;46.236;6.040;2024-03-06T04:11:32;21.70;40.60
74359;DHT22;62792;46.236;6.040;2024-03-06T04:16:37;21.80;40.70
74359;DHT22;62792;46.236;6.040;2024-03-06T04:21:41;21.80;40.60
74359;DHT22;62792;46.236;6.040;2024-03-06T04:26:45;21.80;40.70
74359;DHT22;62792;46.236;6.040;2024-03-06T04:31:48;21.80;40.60
74359;DHT22;62792;46.236;6.040;2024-03-06T04:36:51;21.70;40.70
74359;DHT22;62792;46.236;6.040;2024-03-06T04:41:56;21.70;40.70
74359;DHT22;62792;46.236;6.040;2024-03-06T04:46:59;21.70;40.80
74359;DHT22;62792;46.236;6.040;2024-03-06T04:52:02;21.70;40.80
74359;DHT22;62792;46.236;6.040;2024-03-06T04:57:06;21.70;40.50
74359;DHT22;62792;46.236;6.040;2024-03-06T05:02:09;21.70;40.60
74359;DHT22;62792;46.236;6.040;2024-03-06T05:07:12;21.70;40.60
74359;DHT22;62792;46.236;6.040;2024-03-06T05:12:34;21.80;40.70
74359;DHT22;62792;46.236;6.040;2024-03-06T05:17:54;21.70;40.70
74359;DHT22;62792;46.236;6.040;2024-03-06T05:23:15;21.60;40.80
74359;DHT22;62792;46.236;6.040;2024-03-06T05:28:38;21.60;40.70
74359;DHT22;62792;46.236;6.040;2024-03-06T05:33:58;21.70;40.70
74359;DHT22;62792;46.236;6.040;2024-03-06T05:39:20;21.80;40.60
74359;DHT22;62792;46.236;6.040;2024-03-06T05:44:41;21.80;40.60
74359;DHT22;62792;46.236;6.040;2024-03-06T05:50:02;22.00;40.60
74359;DHT22;62792;46.236;6.040;2024-03-06T05:55:24;22.10;40.60
74359;DHT22;62792;46.236;6.040;2024-03-06T06:00:46;22.10;40.60
74359;DHT22;62792;46.236;6.040;2024-03-06T06:05:49;22.10;40.50
74359;DHT22;62792;46.236;6.040;2024-03-06T06:10:52;22.20;40.50
74359;DHT22;62792;46.236;6.040;2024-03-06T06:15:58;22.10;40.50
74359;DHT22;62792;46.236;6.040;2024-03-06T06:21:04;22.20;40.40
74359;DHT22;62792;46.236;6.040;2024-03-06T06:26:09;22.10;40.40
74359;DHT22;62792;46.236;6.040;2024-03-06T06:31:13;22.10;40.60
74359;DHT22;62792;46.236;6.040;2024-03-06T06:36:16;22.10;40.60
74359;DHT22;62792;46.236;6.040;2024-03-06T06:41:19;22.10;40.40
74359;DHT22;62792;46.236;6.040;2024-03-06T06:46:23;22.20;40.50
74359;DHT22;62792;46.236;6.040;2024-03-06T06:51:26;22.20;40.70
74359;DHT22;62792;46.236;6.040;2024-03-06T06:56:29;22.20;40.40
74359;DHT22;62792;46.236;6.040;2024-03-06T07:01:34;22.30;40.30
74359;DHT22;62792;46.236;6.040;2024-03-06T07:06:37;22.20;40.40
74359;DHT22;62792;46.236;6.040;2024-03-06T07:11:40;22.20;40.40
74359;DHT22;62792;46.236;6.040;2024-03-06T07:16:45;22.20;40.60
74359;DHT22;62792;46.236;6.040;2024-03-06T07:21:48;22.20;40.50
74359;DHT22;62792;46.236;6.040;2024-03-06T07:26:51;22.20;40.40
74359;DHT22;62792;46.236;6.040;2024-03-06T07:31:55;22.30;40.50
74359;DHT22;62792;46.236;6.040;2024-03-06T07:36:59;22.40;40.50
74359;DHT22;62792;46.236;6.040;2024-03-06T07:42:06;22.30;40.50
74359;DHT22;62792;46.236;6.040;2024-03-06T07:47:10;22.40;40.60
74359;DHT22;62792;46.236;6.040;2024-03-06T07:52:14;22.30;40.40
74359;DHT22;62792;46.236;6.040;2024-03-06T07:57:17;22.30;40.50
74359;DHT22;62792;46.236;6.040;2024-03-06T08:02:22;22.40;40.40
74359;DHT22;62792;46.236;6.040;2024-03-06T08:07:25;22.30;40.30
74359;DHT22;62792;46.236;6.040;2024-03-06T08:12:28;22.30;40.30
74359;DHT22;62792;46.236;6.040;2024-03-06T08:17:32;22.30;40.30
74359;DHT22;62792;46.236;6.040;2024-03-06T08:22:35;22.40;40.40
74359;DHT22;62792;46.236;6.040;2024-03-06T08:27:40;22.40;40.40
74359;DHT22;62792;46.236;6.040;2024-03-06T08:32:45;22.50;41.10
74359;DHT22;62792;46.236;6.040;2024-03-06T08:37:48;22.60;42.10
74359;DHT22;62792;46.236;6.040;2024-03-06T08:42:52;22.80;42.90
74359;DHT22;62792;46.236;6.040;2024-03-06T08:47:56;22.70;42.50
74359;DHT22;62792;46.236;6.040;2024-03-06T08:52:59;22.70;42.10
74359;DHT22;62792;46.236;6.040;2024-03-06T08:58:03;22.60;42.10
74359;DHT22;62792;46.236;6.040;2024-03-06T09:03:08;22.60;42.00
74359;DHT22;62792;46.236;6.040;2024-03-06T09:08:11;22.60;42.40
74359;DHT22;62792;46.236;6.040;2024-03-06T09:13:14;22.70;42.50
74359;DHT22;62792;46.236;6.040;2024-03-06T09:18:18;22.80;42.40
74359;DHT22;62792;46.236;6.040;2024-03-06T09:23:21;23.00;43.20
74359;DHT22;62792;46.236;6.040;2024-03-06T09:28:24;23.00;42.30
74359;DHT22;62792;46.236;6.040;2024-03-06T09:33:28;23.00;42.00
74359;DHT22;62792;46.236;6.040;2024-03-06T09:38:31;23.10;42.20
74359;DHT22;62792;46.236;6.040;2024-03-06T09:43:34;23.10;42.00
74359;DHT22;62792;46.236;6.040;2024-03-06T09:48:40;23.40;42.00
74359;DHT22;62792;46.236;6.040;2024-03-06T09:53:48;23.50;41.90
74359;DHT22;62792;46.236;6.040;2024-03-06T09:58:53;23.60;41.70
74359;DHT22;62792;46.236;6.040;2024-03-06T10:03:59;23.70;41.10
74359;DHT22;62792;46.236;6.040;2024-03-06T10:09:03;23.80;41.50
74359;DHT22;62792;46.236;6.040;2024-03-06T10:14:09;23.80;41.60
74359;DHT22;62792;46.236;6.040;2024-03-06T10:19:18;23.80;41.60
74359;DHT22;62792;46.236;6.040;2024-03-06T10:24:22;23.80;41.50
74359;DHT22;62792;46.236;6.040;2024-03-06T10:29:26;24.00;42.00
74359;DHT22;62792;46.236;6.040;2024-03-06T10:34:33;23.90;41.90
74359;DHT22;62792;46.236;6.040;2024-03-06T10:39:37;23.90;40.80
74359;DHT22;62792;46.236;6.040;2024-03-06T10:44:48;23.90;40.80
74359;DHT22;62792;46.236;6.040;2024-03-06T10:49:54;24.00;41.50
74359;DHT22;62792;46.236;6.040;2024-03-06T10:54:58;24.00;41.50
74359;DHT22;62792;46.236;6.040;2024-03-06T11:00:02;24.10;41.20
74359;DHT22;62792;46.236;6.040;2024-03-06T11:05:08;24.10;40.70
74359;DHT22;62792;46.236;6.040;2024-03-06T11:10:11;23.80;40.50
74359;DHT22;62792;46.236;6.040;2024-03-06T11:15:18;23.80;40.00
74359;DHT22;62792;46.236;6.040;2024-03-06T11:20:24;23.80;40.10
74359;DHT22;62792;46.236;6.040;2024-03-06T11:31:05;23.90;39.90
74359;DHT22;62792;46.236;6.040;2024-03-06T11:36:18;23.90;39.60
74359;DHT22;62792;46.236;6.040;2024-03-06T11:41:23;23.90;39.80
74359;DHT22;62792;46.236;6.040;2024-03-06T11:46:40;23.80;39.60
74359;DHT22;62792;46.236;6.040;2024-03-06T11:51:45;23.70;39.60
74359;DHT22;62792;46.236;6.040;2024-03-06T11:56:49;23.60;39.60
74359;DHT22;62792;46.236;6.040;2024-03-06T12:01:53;23.60;39.50
74359;DHT22;62792;46.236;6.040;2024-03-06T12:06:57;23.60;39.40
74359;DHT22;62792;46.236;6.040;2024-03-06T12:12:01;23.60;40.10
74359;DHT22;62792;46.236;6.040;2024-03-06T12:17:05;23.70;39.40
74359;DHT22;62792;46.236;6.040;2024-03-06T12:22:11;23.60;39.20
74359;DHT22;62792;46.236;6.040;2024-03-06T12:27:14;23.50;39.80
74359;DHT22;62792;46.236;6.040;2024-03-06T12:32:17;23.60;39.80
74359;DHT22;62792;46.236;6.040;2024-03-06T12:37:28;23.50;39.60
74359;DHT22;62792;46.236;6.040;2024-03-06T12:42:36;23.50;40.00
74359;DHT22;62792;46.236;6.040;2024-03-06T12:47:40;23.50;39.70
74359;DHT22;62792;46.236;6.040;2024-03-06T12:52:44;23.50;39.60
74359;DHT22;62792;46.236;6.040;2024-03-06T12:57:48;23.40;39.70
74359;DHT22;62792;46.236;6.040;2024-03-06T13:02:52;23.50;39.50
74359;DHT22;62792;46.236;6.040;2024-03-06T13:07:57;23.40;39.50
74359;DHT22;62792;46.236;6.040;2024-03-06T13:13:01;23.50;39.60
74359;DHT22;62792;46.236;6.040;2024-03-06T13:18:04;23.60;39.50
74359;DHT22;62792;46.236;6.040;2024-03-06T13:23:12;23.70;39.00
74359;DHT22;62792;46.236;6.040;2024-03-06T13:28:15;23.70;38.80
74359;DHT22;62792;46.236;6.040;2024-03-06T13:33:18;23.80;38.60
74359;DHT22;62792;46.236;6.040;2024-03-06T13:38:23;23.70;38.20
74359;DHT22;62792;46.236;6.040;2024-03-06T13:43:26;23.70;38.50
74359;DHT22;62792;46.236;6.040;2024-03-06T13:48:29;23.80;38.90
74359;DHT22;62792;46.236;6.040;2024-03-06T13:53:34;23.80;40.20
74359;DHT22;62792;46.236;6.040;2024-03-06T13:58:37;23.90;38.60
74359;DHT22;62792;46.236;6.040;2024-03-06T14:03:41;23.90;39.00
74359;DHT22;62792;46.236;6.040;2024-03-06T14:08:45;23.70;38.80
74359;DHT22;62792;46.236;6.040;2024-03-06T14:13:48;23.60;38.40
74359;DHT22;62792;46.236;6.040;2024-03-06T14:18:52;23.70;38.50
74359;DHT22;62792;46.236;6.040;2024-03-06T14:23:59;23.60;39.40
74359;DHT22;62792;46.236;6.040;2024-03-06T14:29:05;23.60;39.50
74359;DHT22;62792;46.236;6.040;2024-03-06T14:34:09;23.70;38.80
74359;DHT22;62792;46.236;6.040;2024-03-06T14:39:14;23.80;38.50
74359;DHT22;62792;46.236;6.040;2024-03-06T14:44:17;23.60;38.10
74359;DHT22;62792;46.236;6.040;2024-03-06T14:49:20;23.40;37.40
74359;DHT22;62792;46.236;6.040;2024-03-06T14:54:25;23.50;37.40
74359;DHT22;62792;46.236;6.040;2024-03-06T14:59:28;23.90;38.60
74359;DHT22;62792;46.236;6.040;2024-03-06T15:04:31;24.00;38.20
74359;DHT22;62792;46.236;6.040;2024-03-06T15:09:36;23.90;37.80
74359;DHT22;62792;46.236;6.040;2024-03-06T15:14:39;23.80;37.60
74359;DHT22;62792;46.236;6.040;2024-03-06T15:19:47;23.70;37.90
74359;DHT22;62792;46.236;6.040;2024-03-06T15:24:52;23.80;37.90
74359;DHT22;62792;46.236;6.040;2024-03-06T15:29:56;23.80;38.00
74359;DHT22;62792;46.236;6.040;2024-03-06T15:34:59;23.70;38.00
74359;DHT22;62792;46.236;6.040;2024-03-06T15:40:04;23.80;37.70
74359;DHT22;62792;46.236;6.040;2024-03-06T15:45:11;24.00;38.00
74359;DHT22;62792;46.236;6.040;2024-03-06T15:50:14;24.10;37.70
74359;DHT22;62792;46.236;6.040;2024-03-06T15:55:19;24.00;37.70
74359;DHT22;62792;46.236;6.040;2024-03-06T16:00:22;24.10;37.60
74359;DHT22;62792;46.236;6.040;2024-03-06T16:05:25;24.10;37.50
74359;DHT22;62792;46.236;6.040;2024-03-06T16:10:30;24.10;37.80
74359;DHT22;62792;46.236;6.040;2024-03-06T16:15:33;24.30;37.70
74359;DHT22;62792;46.236;6.040;2024-03-06T16:20:36;24.40;37.70
74359;DHT22;62792;46.236;6.040;2024-03-06T16:25:40;24.30;37.80
74359;DHT22;62792;46.236;6.040;2024-03-06T16:30:44;24.30;37.90
74359;DHT22;62792;46.236;6.040;2024-03-06T16:35:47;24.20;38.30
74359;DHT22;62792;46.236;6.040;2024-03-06T16:40:52;24.20;38.00
74359;DHT22;62792;46.236;6.040;2024-03-06T16:45:55;24.20;38.30
74359;DHT22;62792;46.236;6.040;2024-03-06T16:50:58;24.10;38.00
74359;DHT22;62792;46.236;6.040;2024-03-06T16:56:04;24.10;37.90
74359;DHT22;62792;46.236;6.040;2024-03-06T17:01:07;24.30;37.60
74359;DHT22;62792;46.236;6.040;2024-03-06T17:06:10;24.40;37.90
74359;DHT22;62792;46.236;6.040;2024-03-06T17:11:15;24.40;37.50
74359;DHT22;62792;46.236;6.040;2024-03-06T17:16:19;24.40;37.40
74359;DHT22;62792;46.236;6.040;2024-03-06T17:21:22;24.30;37.60
74359;DHT22;62792;46.236;6.040;2024-03-06T17:26:26;24.20;37.60
74359;DHT22;62792;46.236;6.040;2024-03-06T17:31:29;24.10;37.80
74359;DHT22;62792;46.236;6.040;2024-03-06T17:36:33;24.00;38.00
74359;DHT22;62792;46.236;6.040;2024-03-06T17:41:41;24.00;38.10
74359;DHT22;62792;46.236;6.040;2024-03-06T17:46:45;24.00;38.20
74359;DHT22;62792;46.236;6.040;2024-03-06T17:51:48;23.90;38.20
74359;DHT22;62792;46.236;6.040;2024-03-06T17:56:53;23.80;38.30
74359;DHT22;62792;46.236;6.040;2024-03-06T18:02:00;23.80;38.30
74359;DHT22;62792;46.236;6.040;2024-03-06T18:07:03;23.70;38.20
74359;DHT22;62792;46.236;6.040;2024-03-06T18:12:08;23.60;38.30
74359;DHT22;62792;46.236;6.040;2024-03-06T18:17:11;23.60;39.00
74359;DHT22;62792;46.236;6.040;2024-03-06T18:22:14;23.60;39.30
74359;DHT22;62792;46.236;6.040;2024-03-06T18:27:18;23.50;39.20
74359;DHT22;62792;46.236;6.040;2024-03-06T18:32:21;23.50;39.10
74359;DHT22;62792;46.236;6.040;2024-03-06T18:37:24;23.40;39.30
74359;DHT22;62792;46.236;6.040;2024-03-06T18:42:29;23.40;39.20
74359;DHT22;62792;46.236;6.040;2024-03-06T18:47:32;23.30;39.30
74359;DHT22;62792;46.236;6.040;2024-03-06T18:52:35;23.20;39.20
74359;DHT22;62792;46.236;6.040;2024-03-06T18:57:39;23.20;39.20
74359;DHT22;62792;46.236;6.040;2024-03-06T19:02:42;23.20;39.30
74359;DHT22;62792;46.236;6.040;2024-03-06T19:07:45;23.20;39.40
74359;DHT22;62792;46.236;6.040;2024-03-06T19:12:49;23.10;39.20
74359;DHT22;62792;46.236;6.040;2024-03-06T19:17:52;23.10;39.40
74359;DHT22;62792;46.236;6.040;2024-03-06T19:22:55;23.00;39.20
74359;DHT22;62792;46.236;6.040;2024-03-06T19:27:59;23.00;39.50
74359;DHT22;62792;46.236;6.040;2024-03-06T19:33:04;22.90;39.10
74359;DHT22;62792;46.236;6.040;2024-03-06T19:38:07;23.00;39.10
74359;DHT22;62792;46.236;6.040;2024-03-06T19:43:16;23.00;39.20
74359;DHT22;62792;46.236;6.040;2024-03-06T19:48:19;22.90;39.00
74359;DHT22;62792;46.236;6.040;2024-03-06T19:53:22;22.90;39.10
74359;DHT22;62792;46.236;6.040;2024-03-06T19:58:27;22.90;39.20
74359;DHT22;62792;46.236;6.040;2024-03-06T20:03:29;22.80;39.10
74359;DHT22;62792;46.236;6.040;2024-03-06T20:08:32;22.80;39.10
74359;DHT22;62792;46.236;6.040;2024-03-06T20:13:37;22.80;39.10
74359;DHT22;62792;46.236;6.040;2024-03-06T20:18:39;22.70;39.30
74359;DHT22;62792;46.236;6.040;2024-03-06T20:23:43;22.80;38.90
74359;DHT22;62792;46.236;6.040;2024-03-06T20:28:47;22.80;39.10
74359;DHT22;62792;46.236;6.040;2024-03-06T20:33:52;22.70;39.00
74359;DHT22;62792;46.236;6.040;2024-03-06T20:38:56;22.70;39.10
74359;DHT22;62792;46.236;6.040;2024-03-06T20:44:00;22.70;39.10
74359;DHT22;62792;46.236;6.040;2024-03-06T20:49:03;22.60;38.90
74359;DHT22;62792;46.236;6.040;2024-03-06T20:54:08;22.60;38.90
74359;DHT22;62792;46.236;6.040;2024-03-06T20:59:12;22.60;38.90
74359;DHT22;62792;46.236;6.040;2024-03-06T21:04:16;22.70;39.00
74359;DHT22;62792;46.236;6.040;2024-03-06T21:09:18;22.70;39.10
74359;DHT22;62792;46.236;6.040;2024-03-06T21:14:26;22.50;38.80
74359;DHT22;62792;46.236;6.040;2024-03-06T21:19:29;22.70;38.80
74359;DHT22;62792;46.236;6.040;2024-03-06T21:24:32;22.60;38.70
74359;DHT22;62792;46.236;6.040;2024-03-06T21:29:38;22.70;38.80
74359;DHT22;62792;46.236;6.040;2024-03-06T21:34:41;22.60;38.70
74359;DHT22;62792;46.236;6.040;2024-03-06T21:39:44;22.50;38.90
74359;DHT22;62792;46.236;6.040;2024-03-06T21:44:49;22.60;38.70
74359;DHT22;62792;46.236;6.040;2024-03-06T21:49:52;22.40;38.90
74359;DHT22;62792;46.236;6.040;2024-03-06T21:54:55;22.50;38.70
74359;DHT22;62792;46.236;6.040;2024-03-06T21:59:59;22.50;38.70
74359;DHT22;62792;46.236;6.040;2024-03-06T22:05:02;22.50;38.90
74359;DHT22;62792;46.236;6.040;2024-03-06T22:10:05;22.50;39.00
74359;DHT22;62792;46.236;6.040;2024-03-06T22:15:11;22.40;38.80
74359;DHT22;62792;46.236;6.040;2024-03-06T22:20:14;22.50;38.80
74359;DHT22;62792;46.236;6.040;2024-03-06T22:25:18;22.50;38.90
74359;DHT22;62792;46.236;6.040;2024-03-06T22:30:22;22.40;38.70
74359;DHT22;62792;46.236;6.040;2024-03-06T22:35:27;22.40;38.90
74359;DHT22;62792;46.236;6.040;2024-03-06T22:40:30;22.40;38.70
74359;DHT22;62792;46.236;6.040;2024-03-06T22:45:34;22.50;38.60
74359;DHT22;62792;46.236;6.040;2024-03-06T22:50:37;22.50;38.60
74359;DHT22;62792;46.236;6.040;2024-03-06T22:55:41;22.40;38.80
74359;DHT22;62792;46.236;6.040;2024-03-06T23:00:45;22.50;38.70
74359;DHT22;62792;46.236;6.040;2024-03-06T23:05:50;22.40;38.70
74359;DHT22;62792;46.236;6.040;2024-03-06T23:10:53;22.40;38.60
74359;DHT22;62792;46.236;6.040;2024-03-06T23:15:58;22.30;38.70
74359;DHT22;62792;46.236;6.040;2024-03-06T23:21:02;22.40;38.50
74359;DHT22;62792;46.236;6.040;2024-03-06T23:26:06;22.40;38.40
74359;DHT22;62792;46.236;6.040;2024-03-06T23:31:10;22.40;38.50
74359;DHT22;62792;46.236;6.040;2024-03-06T23:36:13;22.30;38.50
74359;DHT22;62792;46.236;6.040;2024-03-06T23:41:16;22.40;38.40
74359;DHT22;62792;46.236;6.040;2024-03-06T23:46:22;22.40;38.50
74359;DHT22;62792;46.236;6.040;2024-03-06T23:51:25;22.30;38.30
74359;DHT22;62792;46.236;6.040;2024-03-06T23:56:28;22.30;38.20
